sensor_id;sensor_type;location;lat;lon;timestamp;pressure;altitude;pressure_sealevel;temperature
68440;BMP180;55421;51.600;5.718;2023-02-11T00:00:41;162728.59;;;5.80
68440;BMP180;55421;51.600;5.718;2023-02-11T00:03:23;162729.80;;;5.80
68440;BMP180;55421;51.600;5.718;2023-02-11T00:06:03;162731.80;;;5.80
68440;BMP180;55421;51.600;5.718;2023-02-11T00:08:30;162735.00;;;5.80
68440;BMP180;55421;51.600;5.718;2023-02-11T00:10:57;162739.80;;;5.80
68440;BMP180;55421;51.600;5.718;2023-02-11T00:13:24;162744.59;;;5.80
68440;BMP180;55421;51.600;5.718;2023-02-11T00:15:51;162743.41;;;5.80
68440;BMP180;55421;51.600;5.718;2023-02-11T00:18:18;162742.20;;;5.80
68440;BMP180;55421;51.600;5.718;2023-02-11T00:20:45;162743.41;;;5.80
68440;BMP180;55421;51.600;5.718;2023-02-11T00:23:12;162750.59;;;5.80
68440;BMP180;55421;51.600;5.718;2023-02-11T00:25:41;162763.00;;;5.90
68440;BMP180;55421;51.600;5.718;2023-02-11T00:28:09;162779.00;;;5.90
68440;BMP180;55421;51.600;5.718;2023-02-11T00:30:36;162780.20;;;5.90
68440;BMP180;55421;51.600;5.718;2023-02-11T00:33:03;162779.00;;;5.90
68440;BMP180;55421;51.600;5.718;2023-02-11T00:35:29;162780.20;;;5.90
68440;BMP180;55421;51.600;5.718;2023-02-11T00:37:56;162773.00;;;5.90
68440;BMP180;55421;51.600;5.718;2023-02-11T00:40:23;162767.00;;;5.90
68440;BMP180;55421;51.600;5.718;2023-02-11T00:42:49;162763.00;;;5.90
68440;BMP180;55421;51.600;5.718;2023-02-11T00:45:16;162771.00;;;5.90
68440;BMP180;55421;51.600;5.718;2023-02-11T00:47:42;162777.00;;;5.90
68440;BMP180;55421;51.600;5.718;2023-02-11T00:50:09;162779.00;;;5.90
68440;BMP180;55421;51.600;5.718;2023-02-11T00:52:36;162777.41;;;5.90
68440;BMP180;55421;51.600;5.718;2023-02-11T00:55:02;162765.00;;;5.90
68440;BMP180;55421;51.600;5.718;2023-02-11T00:57:29;162754.20;;;5.80
68440;BMP180;55421;51.600;5.718;2023-02-11T00:59:55;162737.41;;;5.80
68440;BMP180;55421;51.600;5.718;2023-02-11T01:02:22;162738.59;;;5.80
68440;BMP180;55421;51.600;5.718;2023-02-11T01:04:50;162743.41;;;5.80
68440;BMP180;55421;51.600;5.718;2023-02-11T01:07:16;162753.00;;;5.82
68440;BMP180;55421;51.600;5.718;2023-02-11T01:09:43;162756.59;;;5.80
68440;BMP180;55421;51.600;5.718;2023-02-11T01:12:09;162753.00;;;5.80
68440;BMP180;55421;51.600;5.718;2023-02-11T01:14:36;162744.59;;;5.80
68440;BMP180;55421;51.600;5.718;2023-02-11T01:17:04;162730.59;;;5.80
68440;BMP180;55421;51.600;5.718;2023-02-11T01:19:31;162731.41;;;5.80
68440;BMP180;55421;51.600;5.718;2023-02-11T01:21:57;162741.00;;;5.80
68440;BMP180;55421;51.600;5.718;2023-02-11T01:24:24;162739.80;;;5.80
68440;BMP180;55421;51.600;5.718;2023-02-11T01:26:50;162747.00;;;5.80
68440;BMP180;55421;51.600;5.718;2023-02-11T01:29:17;162743.41;;;5.80
68440;BMP180;55421;51.600;5.718;2023-02-11T01:31:43;162732.59;;;5.80
68440;BMP180;55421;51.600;5.718;2023-02-11T01:34:10;162724.59;;;5.80
68440;BMP180;55421;51.600;5.718;2023-02-11T01:36:36;162724.59;;;5.80
68440;BMP180;55421;51.600;5.718;2023-02-11T01:39:03;162730.20;;;5.80
68440;BMP180;55421;51.600;5.718;2023-02-11T01:41:29;162735.00;;;5.80
68440;BMP180;55421;51.600;5.718;2023-02-11T01:44:31;162731.80;;;5.80
68440;BMP180;55421;51.600;5.718;2023-02-11T01:46:59;162726.59;;;5.80
68440;BMP180;55421;51.600;5.718;2023-02-11T01:49:32;162717.80;;;5.80
68440;BMP180;55421;51.600;5.718;2023-02-11T01:52:05;162710.59;;;5.74
68440;BMP180;55421;51.600;5.718;2023-02-11T01:54:40;162704.59;;;5.70
68440;BMP180;55421;51.600;5.718;2023-02-11T01:57:30;162710.59;;;5.74
68440;BMP180;55421;51.600;5.718;2023-02-11T02:00:34;162716.59;;;5.78
68440;BMP180;55421;51.600;5.718;2023-02-11T02:03:08;162715.41;;;5.80
68440;BMP180;55421;51.600;5.718;2023-02-11T02:06:00;162708.20;;;5.70
68440;BMP180;55421;51.600;5.718;2023-02-11T02:11:15;162675.41;;;5.66
68440;BMP180;55421;51.600;5.718;2023-02-11T02:13:43;162667.41;;;5.60
68440;BMP180;55421;51.600;5.718;2023-02-11T02:16:17;162666.41;;;5.60
68440;BMP180;55421;51.600;5.718;2023-02-11T02:25:39;162681.80;;;5.70
68440;BMP180;55421;51.600;5.718;2023-02-11T02:28:33;162674.20;;;5.62
68440;BMP180;55421;51.600;5.718;2023-02-11T02:34:14;162652.00;;;5.60
68440;BMP180;55421;51.600;5.718;2023-02-11T02:37:00;162652.41;;;5.60
68440;BMP180;55421;51.600;5.718;2023-02-11T02:39:34;162665.20;;;5.60
68440;BMP180;55421;51.600;5.718;2023-02-11T02:42:03;162668.59;;;5.60
68440;BMP180;55421;51.600;5.718;2023-02-11T02:44:32;162672.20;;;5.60
68440;BMP180;55421;51.600;5.718;2023-02-11T02:46:59;162667.41;;;5.60
68440;BMP180;55421;51.600;5.718;2023-02-11T02:49:25;162665.80;;;5.60
68440;BMP180;55421;51.600;5.718;2023-02-11T02:52:39;162654.80;;;5.60
68440;BMP180;55421;51.600;5.718;2023-02-11T02:55:31;162650.00;;;5.60
68440;BMP180;55421;51.600;5.718;2023-02-11T03:10:17;162632.41;;;5.56
68440;BMP180;55421;51.600;5.718;2023-02-11T03:12:47;162636.00;;;5.56
68440;BMP180;55421;51.600;5.718;2023-02-11T03:15:16;162643.59;;;5.60
68440;BMP180;55421;51.600;5.718;2023-02-11T03:17:48;162646.41;;;5.60
68440;BMP180;55421;51.600;5.718;2023-02-11T03:20:19;162647.20;;;5.60
68440;BMP180;55421;51.600;5.718;2023-02-11T03:23:27;162638.00;;;5.60
68440;BMP180;55421;51.600;5.718;2023-02-11T03:26:13;162626.80;;;5.50
68440;BMP180;55421;51.600;5.718;2023-02-11T03:28:53;162618.41;;;5.50
68440;BMP180;55421;51.600;5.718;2023-02-11T03:31:43;162622.80;;;5.50
68440;BMP180;55421;51.600;5.718;2023-02-11T03:34:44;162631.20;;;5.50
68440;BMP180;55421;51.600;5.718;2023-02-11T03:37:26;162632.41;;;5.50
68440;BMP180;55421;51.600;5.718;2023-02-11T03:40:04;162622.80;;;5.50
68440;BMP180;55421;51.600;5.718;2023-02-11T03:42:39;162605.20;;;5.50
68440;BMP180;55421;51.600;5.718;2023-02-11T03:45:16;162599.59;;;5.50
68440;BMP180;55421;51.600;5.718;2023-02-11T03:47:48;162588.00;;;5.46
68440;BMP180;55421;51.600;5.718;2023-02-11T03:50:19;161589.80;;;5.42
68440;BMP180;55421;51.600;5.718;2023-02-11T03:52:48;154407.80;;;5.50
68440;BMP180;55421;51.600;5.718;2023-02-11T03:55:18;150922.80;;;5.50
68440;BMP180;55421;51.600;5.718;2023-02-11T03:57:46;155983.41;;;5.50
68440;BMP180;55421;51.600;5.718;2023-02-11T04:00:14;156624.41;;;5.50
68440;BMP180;55421;51.600;5.718;2023-02-11T04:02:42;157755.00;;;5.50
68440;BMP180;55421;51.600;5.718;2023-02-11T04:05:14;158509.20;;;5.48
68440;BMP180;55421;51.600;5.718;2023-02-11T04:07:41;159585.41;;;5.50
68440;BMP180;55421;51.600;5.718;2023-02-11T04:10:07;159812.80;;;5.50
68440;BMP180;55421;51.600;5.718;2023-02-11T04:12:34;159496.80;;;5.50
68440;BMP180;55421;51.600;5.718;2023-02-11T04:15:00;159958.59;;;5.50
68440;BMP180;55421;51.600;5.718;2023-02-11T04:17:27;160425.59;;;5.50
68440;BMP180;55421;51.600;5.718;2023-02-11T04:19:53;160946.59;;;5.50
68440;BMP180;55421;51.600;5.718;2023-02-11T04:22:20;161430.41;;;5.50
68440;BMP180;55421;51.600;5.718;2023-02-11T04:24:46;161943.41;;;5.50
68440;BMP180;55421;51.600;5.718;2023-02-11T04:27:13;161619.00;;;5.50
68440;BMP180;55421;51.600;5.718;2023-02-11T04:29:39;162049.80;;;5.50
68440;BMP180;55421;51.600;5.718;2023-02-11T04:32:05;161171.41;;;5.50
68440;BMP180;55421;51.600;5.718;2023-02-11T04:34:32;161007.41;;;5.50
68440;BMP180;55421;51.600;5.718;2023-02-11T04:36:58;160836.59;;;5.50
68440;BMP180;55421;51.600;5.718;2023-02-11T04:39:25;160961.80;;;5.50
68440;BMP180;55421;51.600;5.718;2023-02-11T04:41:51;161140.80;;;5.50
68440;BMP180;55421;51.600;5.718;2023-02-11T04:44:18;160505.59;;;5.50
68440;BMP180;55421;51.600;5.718;2023-02-11T04:46:45;159761.41;;;5.50
68440;BMP180;55421;51.600;5.718;2023-02-11T04:49:13;159804.00;;;5.50
68440;BMP180;55421;51.600;5.718;2023-02-11T04:51:41;160479.80;;;5.52
68440;BMP180;55421;51.600;5.718;2023-02-11T04:54:08;160032.80;;;5.50
68440;BMP180;55421;51.600;5.718;2023-02-11T04:56:34;157323.20;;;5.50
68440;BMP180;55421;51.600;5.718;2023-02-11T04:59:02;152434.20;;;5.50
68440;BMP180;55421;51.600;5.718;2023-02-11T05:01:29;150907.20;;;5.50
68440;BMP180;55421;51.600;5.718;2023-02-11T05:03:56;147660.80;;;5.50
68440;BMP180;55421;51.600;5.718;2023-02-11T05:06:23;146242.41;;;5.50
68440;BMP180;55421;51.600;5.718;2023-02-11T05:08:50;149056.20;;;5.50
68440;BMP180;55421;51.600;5.718;2023-02-11T05:11:21;148971.59;;;5.60
68440;BMP180;55421;51.600;5.718;2023-02-11T05:13:48;148551.59;;;5.60
68440;BMP180;55421;51.600;5.718;2023-02-11T05:16:15;146777.41;;;5.60
68440;BMP180;55421;51.600;5.718;2023-02-11T05:18:43;144792.00;;;5.60
68440;BMP180;55421;51.600;5.718;2023-02-11T05:21:14;142409.80;;;5.58
68440;BMP180;55421;51.600;5.718;2023-02-11T05:23:42;138769.00;;;5.58
68440;BMP180;55421;51.600;5.718;2023-02-11T05:26:10;138774.00;;;5.60
68440;BMP180;55421;51.600;5.718;2023-02-11T05:28:38;129804.60;;;5.60
68440;BMP180;55421;51.600;5.718;2023-02-11T05:31:05;127509.20;;;5.60
68440;BMP180;55421;51.600;5.718;2023-02-11T05:33:32;126376.20;;;5.66
68440;BMP180;55421;51.600;5.718;2023-02-11T05:36:08;135677.00;;;5.70
68440;BMP180;55421;51.600;5.718;2023-02-11T05:38:36;130525.80;;;5.64
68440;BMP180;55421;51.600;5.718;2023-02-11T05:41:05;115501.40;;;5.62
68440;BMP180;55421;51.600;5.718;2023-02-11T05:43:32;105523.00;;;5.60
68440;BMP180;55421;51.600;5.718;2023-02-11T05:46:01;99290.20;;;5.70
68440;BMP180;55421;51.600;5.718;2023-02-11T05:48:28;92512.80;;;5.70
68440;BMP180;55421;51.600;5.718;2023-02-11T05:50:55;102523.40;;;5.70
68440;BMP180;55421;51.600;5.718;2023-02-11T05:53:21;107532.80;;;5.70
68440;BMP180;55421;51.600;5.718;2023-02-11T05:55:48;113144.20;;;5.70
68440;BMP180;55421;51.600;5.718;2023-02-11T05:58:14;113180.00;;;5.70
68440;BMP180;55421;51.600;5.718;2023-02-11T06:00:41;85402.40;;;5.70
68440;BMP180;55421;51.600;5.718;2023-02-11T06:03:07;58466.60;;;5.70
68440;BMP180;55421;51.600;5.718;2023-02-11T06:05:34;46650.60;;;5.70
68440;BMP180;55421;51.600;5.718;2023-02-11T06:08:00;48867.60;;;5.74
68440;BMP180;55421;51.600;5.718;2023-02-11T06:10:27;41944.00;;;5.80
68440;BMP180;55421;51.600;5.718;2023-02-11T06:12:53;44440.00;;;5.72
68440;BMP180;55421;51.600;5.718;2023-02-11T06:15:20;64435.20;;;5.78
68440;BMP180;55421;51.600;5.718;2023-02-11T06:17:46;68423.20;;;5.70
68440;BMP180;55421;51.600;5.718;2023-02-11T06:20:13;79709.20;;;5.70
68440;BMP180;55421;51.600;5.718;2023-02-11T06:22:39;68491.40;;;5.70
68440;BMP180;55421;51.600;5.718;2023-02-11T06:25:06;78594.20;;;5.70
68440;BMP180;55421;51.600;5.718;2023-02-11T06:27:32;90692.80;;;5.76
68440;BMP180;55421;51.600;5.718;2023-02-11T06:29:59;99979.40;;;5.80
68440;BMP180;55421;51.600;5.718;2023-02-11T06:32:27;101769.60;;;5.80
68440;BMP180;55421;51.600;5.718;2023-02-11T06:34:54;102442.60;;;5.80
68440;BMP180;55421;51.600;5.718;2023-02-11T06:37:20;106388.60;;;5.80
68440;BMP180;55421;51.600;5.718;2023-02-11T06:39:47;122474.40;;;5.80
68440;BMP180;55421;51.600;5.718;2023-02-11T06:42:14;131066.00;;;5.80
68440;BMP180;55421;51.600;5.718;2023-02-11T06:44:40;130315.60;;;5.80
68440;BMP180;55421;51.600;5.718;2023-02-11T06:47:07;116016.40;;;5.80
68440;BMP180;55421;51.600;5.718;2023-02-11T06:49:33;98017.20;;;5.80
68440;BMP180;55421;51.600;5.718;2023-02-11T06:51:59;108269.00;;;5.80
68440;BMP180;55421;51.600;5.718;2023-02-11T06:54:26;108087.20;;;5.80
68440;BMP180;55421;51.600;5.718;2023-02-11T06:56:52;94705.60;;;5.74
68440;BMP180;55421;51.600;5.718;2023-02-11T06:59:20;86980.80;;;5.70
68440;BMP180;55421;51.600;5.718;2023-02-11T07:01:47;72083.60;;;5.70
68440;BMP180;55421;51.600;5.718;2023-02-11T07:04:13;86956.60;;;5.72
68440;BMP180;55421;51.600;5.718;2023-02-11T07:06:40;91297.60;;;5.78
68440;BMP180;55421;51.600;5.718;2023-02-11T07:09:07;68830.80;;;5.80
68440;BMP180;55421;51.600;5.718;2023-02-11T07:11:34;71234.20;;;5.80
68440;BMP180;55421;51.600;5.718;2023-02-11T07:14:07;88278.00;;;5.80
68440;BMP180;55421;51.600;5.718;2023-02-11T07:16:35;101964.20;;;5.80
68440;BMP180;55421;51.600;5.718;2023-02-11T07:19:02;104211.00;;;5.80
68440;BMP180;55421;51.600;5.718;2023-02-11T07:21:29;98625.40;;;5.80
68440;BMP180;55421;51.600;5.718;2023-02-11T07:23:55;110838.20;;;5.80
68440;BMP180;55421;51.600;5.718;2023-02-11T07:26:23;121854.40;;;5.80
68440;BMP180;55421;51.600;5.718;2023-02-11T07:28:52;136297.20;;;5.88
68440;BMP180;55421;51.600;5.718;2023-02-11T07:31:23;145385.00;;;5.86
68440;BMP180;55421;51.600;5.718;2023-02-11T07:33:53;150844.20;;;5.90
68440;BMP180;55421;51.600;5.718;2023-02-11T07:36:21;154787.80;;;5.90
68440;BMP180;55421;51.600;5.718;2023-02-11T07:38:49;156526.41;;;5.90
68440;BMP180;55421;51.600;5.718;2023-02-11T07:41:19;155927.41;;;5.90
68440;BMP180;55421;51.600;5.718;2023-02-11T07:43:46;149656.20;;;6.00
68440;BMP180;55421;51.600;5.718;2023-02-11T07:46:24;146271.41;;;6.00
68440;BMP180;55421;51.600;5.718;2023-02-11T07:48:51;151879.41;;;6.10
68440;BMP180;55421;51.600;5.718;2023-02-11T07:51:25;144853.80;;;6.10
68440;BMP180;55421;51.600;5.718;2023-02-11T07:53:53;142694.80;;;6.10
68440;BMP180;55421;51.600;5.718;2023-02-11T07:56:21;139741.80;;;6.10
68440;BMP180;55421;51.600;5.718;2023-02-11T07:58:49;139508.00;;;6.10
68440;BMP180;55421;51.600;5.718;2023-02-11T08:01:20;142246.59;;;6.10
68440;BMP180;55421;51.600;5.718;2023-02-11T08:03:57;149236.20;;;6.14
68440;BMP180;55421;51.600;5.718;2023-02-11T08:06:28;153201.41;;;6.20
68440;BMP180;55421;51.600;5.718;2023-02-11T08:08:55;152742.00;;;6.20
68440;BMP180;55421;51.600;5.718;2023-02-11T08:11:27;156087.80;;;6.20
68440;BMP180;55421;51.600;5.718;2023-02-11T08:13:55;160440.80;;;6.20
68440;BMP180;55421;51.600;5.718;2023-02-11T08:16:29;161629.41;;;6.20
68440;BMP180;55421;51.600;5.718;2023-02-11T08:18:59;162525.59;;;6.20
68440;BMP180;55421;51.600;5.718;2023-02-11T08:21:26;162749.00;;;6.30
68440;BMP180;55421;51.600;5.718;2023-02-11T08:23:54;162897.20;;;6.30
68440;BMP180;55421;51.600;5.718;2023-02-11T08:26:25;162966.20;;;6.30
68440;BMP180;55421;51.600;5.718;2023-02-11T08:28:55;162972.59;;;6.32
68440;BMP180;55421;51.600;5.718;2023-02-11T08:31:38;162970.20;;;6.36
68440;BMP180;55421;51.600;5.718;2023-02-11T08:34:05;162966.20;;;6.32
68440;BMP180;55421;51.600;5.718;2023-02-11T08:36:35;162967.41;;;6.30
68440;BMP180;55421;51.600;5.718;2023-02-11T08:39:12;162974.20;;;6.38
68440;BMP180;55421;51.600;5.718;2023-02-11T08:41:39;162993.80;;;6.40
68440;BMP180;55421;51.600;5.718;2023-02-11T08:44:07;162999.00;;;6.40
68440;BMP180;55421;51.600;5.718;2023-02-11T08:46:35;163017.00;;;6.42
68440;BMP180;55421;51.600;5.718;2023-02-11T08:49:01;163023.00;;;6.50
68440;BMP180;55421;51.600;5.718;2023-02-11T08:51:28;163028.59;;;6.50
68440;BMP180;55421;51.600;5.718;2023-02-11T08:53:59;163031.00;;;6.50
68440;BMP180;55421;51.600;5.718;2023-02-11T08:56:27;163040.20;;;6.50
68440;BMP180;55421;51.600;5.718;2023-02-11T08:58:53;163053.20;;;6.50
68440;BMP180;55421;51.600;5.718;2023-02-11T09:01:26;163066.00;;;6.60
68440;BMP180;55421;51.600;5.718;2023-02-11T09:03:54;163086.41;;;6.60
68440;BMP180;55421;51.600;5.718;2023-02-11T09:06:22;163105.20;;;6.62
68440;BMP180;55421;51.600;5.718;2023-02-11T09:08:52;163114.00;;;6.70
68440;BMP180;55421;51.600;5.718;2023-02-11T09:11:25;163118.41;;;6.70
68440;BMP180;55421;51.600;5.718;2023-02-11T09:13:52;163117.59;;;6.70
68440;BMP180;55421;51.600;5.718;2023-02-11T09:16:25;163118.41;;;6.70
68440;BMP180;55421;51.600;5.718;2023-02-11T09:18:55;163132.00;;;6.70
68440;BMP180;55421;51.600;5.718;2023-02-11T09:21:22;163142.00;;;6.70
68440;BMP180;55421;51.600;5.718;2023-02-11T09:23:48;163155.41;;;6.80
68440;BMP180;55421;51.600;5.718;2023-02-11T09:26:35;163169.80;;;6.80
68440;BMP180;55421;51.600;5.718;2023-02-11T09:29:04;163179.41;;;6.80
68440;BMP180;55421;51.600;5.718;2023-02-11T09:31:33;163185.41;;;6.80
68440;BMP180;55421;51.600;5.718;2023-02-11T09:34:04;163183.00;;;6.80
68440;BMP180;55421;51.600;5.718;2023-02-11T09:36:35;163189.00;;;6.90
68440;BMP180;55421;51.600;5.718;2023-02-11T09:39:06;163206.59;;;6.90
68440;BMP180;55421;51.600;5.718;2023-02-11T09:44:37;163228.59;;;6.92
68440;BMP180;55421;51.600;5.718;2023-02-11T09:47:20;163239.41;;;7.00
68440;BMP180;55421;51.600;5.718;2023-02-11T09:50:02;163251.41;;;7.00
68440;BMP180;55421;51.600;5.718;2023-02-11T09:52:56;163257.80;;;7.00
68440;BMP180;55421;51.600;5.718;2023-02-11T09:55:40;163259.80;;;7.00
68440;BMP180;55421;51.600;5.718;2023-02-11T09:58:15;163273.41;;;7.02
68440;BMP180;55421;51.600;5.718;2023-02-11T10:01:08;163293.20;;;7.10
68440;BMP180;55421;51.600;5.718;2023-02-11T10:15:41;163388.20;;;7.30
68440;BMP180;55421;51.600;5.718;2023-02-11T10:18:48;163381.20;;;7.30
68440;BMP180;55421;51.600;5.718;2023-02-11T10:22:04;163396.59;;;7.30
68440;BMP180;55421;51.600;5.718;2023-02-11T10:24:33;163426.20;;;7.40
68440;BMP180;55421;51.600;5.718;2023-02-11T10:27:15;163432.20;;;7.40
68440;BMP180;55421;51.600;5.718;2023-02-11T10:29:48;163442.20;;;7.40
68440;BMP180;55421;51.600;5.718;2023-02-11T10:32:38;163444.59;;;7.40
68440;BMP180;55421;51.600;5.718;2023-02-11T10:35:18;163437.41;;;7.40
68440;BMP180;55421;51.600;5.718;2023-02-11T10:37:47;163445.80;;;7.42
68440;BMP180;55421;51.600;5.718;2023-02-11T10:40:18;163456.20;;;7.50
68440;BMP180;55421;51.600;5.718;2023-02-11T10:43:02;163467.80;;;7.50
68440;BMP180;55421;51.600;5.718;2023-02-11T10:45:37;163478.59;;;7.50
68440;BMP180;55421;51.600;5.718;2023-02-11T10:51:31;163475.00;;;7.50
68440;BMP180;55421;51.600;5.718;2023-02-11T10:56:36;163499.80;;;7.60
68440;BMP180;55421;51.600;5.718;2023-02-11T10:59:27;163516.20;;;7.60
68440;BMP180;55421;51.600;5.718;2023-02-11T11:02:01;163523.80;;;7.60
68440;BMP180;55421;51.600;5.718;2023-02-11T11:04:39;163526.59;;;7.60
68440;BMP180;55421;51.600;5.718;2023-02-11T11:07:21;163532.00;;;7.60
68440;BMP180;55421;51.600;5.718;2023-02-11T11:10:02;163534.00;;;7.62
68440;BMP180;55421;51.600;5.718;2023-02-11T11:12:47;163546.80;;;7.70
68440;BMP180;55421;51.600;5.718;2023-02-11T11:15:20;163565.20;;;7.70
68440;BMP180;55421;51.600;5.718;2023-02-11T11:20:58;163608.00;;;7.80
68440;BMP180;55421;51.600;5.718;2023-02-11T11:23:28;163622.41;;;7.86
68440;BMP180;55421;51.600;5.718;2023-02-11T11:26:12;163629.20;;;7.90
68440;BMP180;55421;51.600;5.718;2023-02-11T11:29:08;163649.80;;;7.90
68440;BMP180;55421;51.600;5.718;2023-02-11T11:31:48;163674.20;;;8.00
68440;BMP180;55421;51.600;5.718;2023-02-11T11:34:39;163702.59;;;8.04
68440;BMP180;55421;51.600;5.718;2023-02-11T11:37:28;163731.00;;;8.10
68440;BMP180;55421;51.600;5.718;2023-02-11T11:40:08;163751.80;;;8.14
68440;BMP180;55421;51.600;5.718;2023-02-11T11:42:37;163768.20;;;8.20
68440;BMP180;55421;51.600;5.718;2023-02-11T11:47:54;163789.59;;;8.28
68440;BMP180;55421;51.600;5.718;2023-02-11T11:50:39;163802.41;;;8.30
68440;BMP180;55421;51.600;5.718;2023-02-11T11:56:13;163810.41;;;8.30
68440;BMP180;55421;51.600;5.718;2023-02-11T11:58:41;163819.20;;;8.30
68440;BMP180;55421;51.600;5.718;2023-02-11T12:04:16;163869.59;;;8.40
68440;BMP180;55421;51.600;5.718;2023-02-11T12:09:43;163958.20;;;8.60
68440;BMP180;55421;51.600;5.718;2023-02-11T12:15:33;164029.00;;;8.80
68440;BMP180;55421;51.600;5.718;2023-02-11T12:18:20;164040.80;;;8.80
68440;BMP180;55421;51.600;5.718;2023-02-11T12:21:42;164058.41;;;8.90
68440;BMP180;55421;51.600;5.718;2023-02-11T12:24:05;164071.20;;;8.90
68440;BMP180;55421;51.600;5.718;2023-02-11T12:26:50;164097.20;;;8.94
68440;BMP180;55421;51.600;5.718;2023-02-11T12:29:39;164121.20;;;9.00
68440;BMP180;55421;51.600;5.718;2023-02-11T12:35:49;164167.80;;;9.10
68440;BMP180;55421;51.600;5.718;2023-02-11T12:38:38;164192.59;;;9.20
68440;BMP180;55421;51.600;5.718;2023-02-11T12:48:17;164251.41;;;9.30
68440;BMP180;55421;51.600;5.718;2023-02-11T12:56:45;164334.80;;;9.50
68440;BMP180;55421;51.600;5.718;2023-02-11T12:59:45;164365.59;;;9.60
68440;BMP180;55421;51.600;5.718;2023-02-11T13:02:43;164370.80;;;9.60
68440;BMP180;55421;51.600;5.718;2023-02-11T13:05:39;164375.00;;;9.60
68440;BMP180;55421;51.600;5.718;2023-02-11T13:08:16;164356.41;;;9.60
68440;BMP180;55421;51.600;5.718;2023-02-11T13:10:53;164332.00;;;9.50
68440;BMP180;55421;51.600;5.718;2023-02-11T13:13:34;164334.41;;;9.50
68440;BMP180;55421;51.600;5.718;2023-02-11T13:22:04;164313.59;;;9.44
68440;BMP180;55421;51.600;5.718;2023-02-11T13:25:14;164316.00;;;9.46
68440;BMP180;55421;51.600;5.718;2023-02-11T13:28:03;164326.41;;;9.50
68440;BMP180;55421;51.600;5.718;2023-02-11T13:30:37;164346.41;;;9.50
68440;BMP180;55421;51.600;5.718;2023-02-11T13:35:48;164405.00;;;9.70
68440;BMP180;55421;51.600;5.718;2023-02-11T13:38:35;164406.20;;;9.70
68440;BMP180;55421;51.600;5.718;2023-02-11T13:41:38;164411.41;;;9.70
68440;BMP180;55421;51.600;5.718;2023-02-11T13:46:54;164411.41;;;9.70
68440;BMP180;55421;51.600;5.718;2023-02-11T13:49:38;164412.59;;;9.70
68440;BMP180;55421;51.600;5.718;2023-02-11T13:52:30;164405.80;;;9.70
68440;BMP180;55421;51.600;5.718;2023-02-11T13:55:13;164403.41;;;9.70
68440;BMP180;55421;51.600;5.718;2023-02-11T13:58:15;164407.80;;;9.70
68440;BMP180;55421;51.600;5.718;2023-02-11T14:00:50;164410.20;;;9.70
68440;BMP180;55421;51.600;5.718;2023-02-11T14:03:29;164422.20;;;9.70
68440;BMP180;55421;51.600;5.718;2023-02-11T14:06:25;164440.20;;;9.74
68440;BMP180;55421;51.600;5.718;2023-02-11T14:09:37;164447.00;;;9.80
68440;BMP180;55421;51.600;5.718;2023-02-11T14:12:32;164441.41;;;9.70
68440;BMP180;55421;51.600;5.718;2023-02-11T14:17:32;164412.59;;;9.70
68440;BMP180;55421;51.600;5.718;2023-02-11T14:20:03;164417.80;;;9.70
68440;BMP180;55421;51.600;5.718;2023-02-11T14:22:51;164425.80;;;9.70
68440;BMP180;55421;51.600;5.718;2023-02-11T14:25:23;164419.80;;;9.70
68440;BMP180;55421;51.600;5.718;2023-02-11T14:28:07;164413.80;;;9.70
68440;BMP180;55421;51.600;5.718;2023-02-11T14:31:03;164413.80;;;9.70
68440;BMP180;55421;51.600;5.718;2023-02-11T14:33:49;164403.41;;;9.70
68440;BMP180;55421;51.600;5.718;2023-02-11T14:36:46;164397.80;;;9.68
68440;BMP180;55421;51.600;5.718;2023-02-11T14:39:31;164402.59;;;9.70
68440;BMP180;55421;51.600;5.718;2023-02-11T14:42:02;164415.41;;;9.70
68440;BMP180;55421;51.600;5.718;2023-02-11T14:44:31;164418.59;;;9.70
68440;BMP180;55421;51.600;5.718;2023-02-11T14:46:59;164419.80;;;9.70
68440;BMP180;55421;51.600;5.718;2023-02-11T14:49:36;164424.59;;;9.70
68440;BMP180;55421;51.600;5.718;2023-02-11T14:52:27;164429.41;;;9.70
68440;BMP180;55421;51.600;5.718;2023-02-11T14:55:15;164422.20;;;9.70
68440;BMP180;55421;51.600;5.718;2023-02-11T14:57:43;164422.20;;;9.70
68440;BMP180;55421;51.600;5.718;2023-02-11T15:00:21;164421.00;;;9.70
68440;BMP180;55421;51.600;5.718;2023-02-11T15:02:47;164435.41;;;9.70
68440;BMP180;55421;51.600;5.718;2023-02-11T15:05:25;164441.41;;;9.74
68440;BMP180;55421;51.600;5.718;2023-02-11T15:07:56;164431.80;;;9.70
68440;BMP180;55421;51.600;5.718;2023-02-11T15:10:34;164427.00;;;9.70
68440;BMP180;55421;51.600;5.718;2023-02-11T15:13:03;164416.59;;;9.70
68440;BMP180;55421;51.600;5.718;2023-02-11T15:15:31;164408.20;;;9.70
68440;BMP180;55421;51.600;5.718;2023-02-11T15:18:01;164401.00;;;9.70
68440;BMP180;55421;51.600;5.718;2023-02-11T15:20:32;164396.59;;;9.62
68440;BMP180;55421;51.600;5.718;2023-02-11T15:23:07;164402.20;;;9.68
68440;BMP180;55421;51.600;5.718;2023-02-11T15:25:43;164399.80;;;9.62
68440;BMP180;55421;51.600;5.718;2023-02-11T15:28:26;164393.00;;;9.60
68440;BMP180;55421;51.600;5.718;2023-02-11T15:31:13;164381.00;;;9.60
68440;BMP180;55421;51.600;5.718;2023-02-11T15:33:40;164379.80;;;9.60
68440;BMP180;55421;51.600;5.718;2023-02-11T15:36:11;164358.80;;;9.58
68440;BMP180;55421;51.600;5.718;2023-02-11T15:38:39;164349.59;;;9.50
68440;BMP180;55421;51.600;5.718;2023-02-11T15:41:07;164356.00;;;9.52
68440;BMP180;55421;51.600;5.718;2023-02-11T15:43:44;164356.41;;;9.50
68440;BMP180;55421;51.600;5.718;2023-02-11T15:46:22;164349.59;;;9.50
68440;BMP180;55421;51.600;5.718;2023-02-11T15:48:53;164338.00;;;9.50
68440;BMP180;55421;51.600;5.718;2023-02-11T15:51:26;164332.41;;;9.50
68440;BMP180;55421;51.600;5.718;2023-02-11T15:53:57;164314.80;;;9.46
68440;BMP180;55421;51.600;5.718;2023-02-11T15:56:38;164299.20;;;9.40
68440;BMP180;55421;51.600;5.718;2023-02-11T15:59:44;164292.80;;;9.40
68440;BMP180;55421;51.600;5.718;2023-02-11T16:04:57;164287.59;;;9.40
68440;BMP180;55421;51.600;5.718;2023-02-11T16:07:46;164280.00;;;9.40
68440;BMP180;55421;51.600;5.718;2023-02-11T16:10:17;164260.00;;;9.30
68440;BMP180;55421;51.600;5.718;2023-02-11T16:18:23;164215.00;;;9.20
68440;BMP180;55421;51.600;5.718;2023-02-11T16:20:50;164209.00;;;9.20
68440;BMP180;55421;51.600;5.718;2023-02-11T16:23:25;164196.20;;;9.20
68440;BMP180;55421;51.600;5.718;2023-02-11T16:26:04;164188.20;;;9.20
68440;BMP180;55421;51.600;5.718;2023-02-11T16:28:35;164176.20;;;9.10